Time;durP1;ratioP1;P1;durP2;ratioP2;P2;SDS_P1;SDS_P2;PMS_P1;PMS_P2;Temp;Humidity;BMP_temperature;BMP_pressure;BME280_temperature;BME280_humidity;BME280_pressure;Samples;Min_cycle;Max_cycle;Signal;HPM_P1;HPM_P2
2024/02/17 00:00:39;;;;;;;11.87;8.20;;;14.70;99.90;;;;;;5134686;27;20467;-79
2024/02/17 00:03:08;;;;;;;10.97;8.57;;;14.70;99.90;;;;;;5130948;27;21174;-77
2024/02/17 00:05:35;;;;;;;16.20;13.83;;;14.70;99.90;;;;;;5106222;27;20812;-78
2024/02/17 00:08:05;;;;;;;18.00;13.77;;;14.60;99.90;;;;;;5135037;27;20454;-78
2024/02/17 00:10:36;;;;;;;10.50;9.50;;;14.60;99.90;;;;;;5121521;27;20468;-78
2024/02/17 00:13:04;;;;;;;16.93;14.03;;;14.60;99.90;;;;;;5134817;27;20554;-78
2024/02/17 00:15:34;;;;;;;42.67;24.83;;;14.50;99.90;;;;;;5135118;27;20474;-78
2024/02/17 00:18:02;;;;;;;10.37;9.03;;;14.40;99.90;;;;;;5127780;27;20464;-78
2024/02/17 00:20:33;;;;;;;18.00;12.93;;;14.50;99.90;;;;;;5135289;27;20491;-81
2024/02/17 00:23:01;;;;;;;18.60;15.03;;;14.40;99.90;;;;;;5123685;27;20488;-78
2024/02/17 00:25:28;;;;;;;10.27;8.87;;;14.40;99.90;;;;;;5120181;27;20930;-77
2024/02/17 00:27:56;;;;;;;8.03;7.23;;;14.40;99.90;;;;;;5132652;27;20464;-79
2024/02/17 00:30:23;;;;;;;12.03;10.70;;;14.40;99.90;;;;;;5122684;27;20467;-78
2024/02/17 00:32:50;;;;;;;10.77;9.77;;;14.40;99.90;;;;;;5128324;27;20460;-82
2024/02/17 00:35:20;;;;;;;13.60;12.17;;;14.30;99.90;;;;;;5113483;28;20927;-81
2024/02/17 00:37:47;;;;;;;9.13;8.07;;;14.30;99.90;;;;;;5129705;27;20478;-82
2024/02/17 00:40:18;;;;;;;9.10;8.20;;;14.30;99.90;;;;;;5132132;27;20464;-77
2024/02/17 00:42:47;;;;;;;6.30;5.70;;;14.30;99.90;;;;;;5113043;28;20480;-78
2024/02/17 00:45:23;;;;;;;19.17;15.93;;;14.30;99.90;;;;;;5131593;27;20543;-81
2024/02/17 00:47:51;;;;;;;10.70;9.37;;;14.30;99.90;;;;;;5134238;27;20546;-81
2024/02/17 00:50:19;;;;;;;6.50;5.90;;;14.30;99.90;;;;;;5134739;27;20471;-82
2024/02/17 00:52:46;;;;;;;16.80;14.20;;;14.20;99.90;;;;;;5133727;27;20475;-81
2024/02/17 00:55:16;;;;;;;7.10;5.93;;;14.20;99.90;;;;;;5118689;27;20475;-78
2024/02/17 00:57:58;;;;;;;6.90;6.30;;;14.20;99.90;;;;;;5113745;28;20969;-81
2024/02/17 01:00:27;;;;;;;6.80;6.20;;;14.20;99.90;;;;;;5113642;28;20852;-77
2024/02/17 01:02:55;;;;;;;6.00;4.70;;;14.20;99.90;;;;;;5112426;28;20474;-77
2024/02/17 01:05:25;;;;;;;6.53;5.93;;;14.20;99.90;;;;;;5114649;28;20551;-80
2024/02/17 01:07:54;;;;;;;7.20;6.60;;;14.20;99.90;;;;;;5113504;28;20448;-78
2024/02/17 01:10:21;;;;;;;6.70;6.03;;;14.20;99.90;;;;;;5114610;28;20525;-81
2024/02/17 01:12:51;;;;;;;7.10;6.50;;;14.20;99.90;;;;;;5113934;28;20492;-81
2024/02/17 01:15:18;;;;;;;6.93;6.33;;;14.20;99.90;;;;;;5114172;28;20468;-78
2024/02/17 01:17:53;;;;;;;6.30;5.70;;;14.20;99.90;;;;;;5115156;27;20480;-82
2024/02/17 01:20:20;;;;;;;7.47;6.70;;;14.20;99.90;;;;;;5154237;27;20462;-79
2024/02/17 01:22:48;;;;;;;7.63;6.27;;;14.20;99.90;;;;;;5154631;27;20467;-80
2024/02/17 01:25:20;;;;;;;7.20;6.50;;;14.10;99.90;;;;;;5139324;27;20551;-80
2024/02/17 01:27:50;;;;;;;7.60;6.90;;;14.10;99.90;;;;;;5133468;27;20532;-79
2024/02/17 01:30:17;;;;;;;7.03;6.20;;;14.20;99.90;;;;;;5134399;27;20556;-76
2024/02/17 01:32:49;;;;;;;7.40;5.20;;;14.10;99.90;;;;;;5134250;27;20468;-76
2024/02/17 01:35:17;;;;;;;4.40;4.00;;;14.10;99.90;;;;;;5134184;27;20460;-76
2024/02/17 01:37:46;;;;;;;4.80;4.07;;;14.10;99.90;;;;;;5133223;27;20464;-77
2024/02/17 01:40:13;;;;;;;5.87;4.90;;;14.10;99.90;;;;;;5133319;27;20463;-79
2024/02/17 01:42:40;;;;;;;5.30;4.80;;;14.20;99.90;;;;;;5133483;27;20559;-79
2024/02/17 01:45:10;;;;;;;4.60;3.90;;;14.10;99.90;;;;;;5134233;27;20463;-75
2024/02/17 01:47:38;;;;;;;4.00;3.70;;;14.10;99.90;;;;;;5133151;27;20778;-79
2024/02/17 01:50:07;;;;;;;3.90;3.60;;;14.10;99.90;;;;;;5134100;27;20825;-81
2024/02/17 01:52:36;;;;;;;4.07;3.73;;;14.10;99.90;;;;;;5133911;28;20554;-79
2024/02/17 01:55:04;;;;;;;4.13;3.73;;;14.10;99.90;;;;;;5118563;28;20940;-80
2024/02/17 01:57:31;;;;;;;6.80;5.73;;;14.10;99.90;;;;;;5113200;28;20490;-79
2024/02/17 01:59:58;;;;;;;5.60;4.50;;;14.10;99.90;;;;;;5113227;28;20464;-76
2024/02/17 02:02:38;;;;;;;4.33;3.50;;;14.10;99.90;;;;;;5101123;28;20813;-78
2024/02/17 02:05:07;;;;;;;3.23;3.03;;;14.10;99.90;;;;;;5112084;28;20468;-80
2024/02/17 02:07:40;;;;;;;9.07;5.43;;;14.10;99.90;;;;;;5113460;28;20464;-78
2024/02/17 02:10:08;;;;;;;5.63;3.83;;;14.10;99.90;;;;;;5112425;28;20967;-75
2024/02/17 02:12:35;;;;;;;5.03;4.20;;;14.10;99.90;;;;;;5113099;28;20473;-81
2024/02/17 02:15:10;;;;;;;4.40;4.00;;;14.10;99.90;;;;;;5112239;28;20465;-76
2024/02/17 02:17:38;;;;;;;4.23;3.90;;;14.10;99.90;;;;;;5114757;28;20526;-77
2024/02/17 02:20:08;;;;;;;3.53;3.23;;;14.10;99.90;;;;;;5133231;28;20464;-78
2024/02/17 02:22:35;;;;;;;4.40;3.80;;;14.20;99.90;;;;;;5133461;28;20468;-77
2024/02/17 02:25:06;;;;;;;4.50;4.10;;;14.20;99.90;;;;;;5141453;27;20467;-80
2024/02/17 02:27:40;;;;;;;4.80;4.40;;;14.30;99.90;;;;;;5154565;27;20494;-80
2024/02/17 02:30:08;;;;;;;5.20;4.00;;;14.30;99.90;;;;;;5153957;27;20472;-81
2024/02/17 02:32:35;;;;;;;3.90;3.50;;;14.30;99.90;;;;;;5154057;27;20549;-80
2024/02/17 02:35:02;;;;;;;3.73;3.30;;;14.30;99.90;;;;;;5137939;27;20467;-77
2024/02/17 02:37:32;;;;;;;9.07;7.30;;;14.30;99.90;;;;;;5124755;28;20490;-77
2024/02/17 02:39:59;;;;;;;10.80;7.97;;;14.30;99.90;;;;;;5133071;28;20467;-77
2024/02/17 02:42:28;;;;;;;6.87;6.00;;;14.30;99.90;;;;;;5132741;28;20468;-79
2024/02/17 02:44:58;;;;;;;12.20;9.33;;;14.30;99.90;;;;;;5132971;28;20543;-76
2024/02/17 02:47:32;;;;;;;6.80;6.17;;;14.30;99.90;;;;;;5133705;28;20970;-77
2024/02/17 02:49:59;;;;;;;6.97;6.20;;;14.30;99.90;;;;;;5133017;28;20535;-80
2024/02/17 02:52:27;;;;;;;5.97;5.47;;;14.30;99.90;;;;;;5123114;28;20475;-77
2024/02/17 02:54:54;;;;;;;4.97;4.50;;;14.30;99.90;;;;;;5112069;28;20547;-78
2024/02/17 02:57:22;;;;;;;5.37;4.87;;;14.30;99.90;;;;;;5103751;28;20467;-77
2024/02/17 02:59:50;;;;;;;4.90;4.50;;;14.20;99.90;;;;;;5115460;28;20464;-77
2024/02/17 03:02:18;;;;;;;5.27;4.77;;;14.20;99.90;;;;;;5105281;28;20464;-80
2024/02/17 03:04:46;;;;;;;14.53;10.43;;;14.20;99.90;;;;;;5115972;28;20464;-77
2024/02/17 03:07:13;;;;;;;13.40;10.93;;;14.20;99.90;;;;;;5115005;28;20460;-80
2024/02/17 03:09:40;;;;;;;7.17;5.70;;;14.20;99.90;;;;;;5116753;28;20467;-77
2024/02/17 03:12:07;;;;;;;5.57;5.07;;;14.10;99.90;;;;;;5115568;28;20466;-77
2024/02/17 03:14:36;;;;;;;15.00;12.43;;;14.10;99.90;;;;;;5116229;28;20468;-80
2024/02/17 03:17:04;;;;;;;6.37;5.77;;;14.10;99.90;;;;;;5115804;28;20464;-80
2024/02/17 03:19:34;;;;;;;6.73;6.10;;;14.10;99.90;;;;;;5116678;28;20487;-80
2024/02/17 03:22:03;;;;;;;5.67;4.80;;;14.00;99.90;;;;;;5115927;28;20489;-80
2024/02/17 03:24:32;;;;;;;6.20;5.70;;;14.00;99.90;;;;;;5116019;28;20586;-77
2024/02/17 03:27:00;;;;;;;6.30;4.60;;;13.90;99.90;;;;;;5115846;28;20878;-80
2024/02/17 03:29:27;;;;;;;5.37;4.53;;;13.90;99.90;;;;;;5116308;28;20540;-77
2024/02/17 03:31:53;;;;;;;6.37;5.77;;;13.90;99.90;;;;;;5116320;28;20496;-77
2024/02/17 03:34:21;;;;;;;5.93;5.43;;;13.90;99.90;;;;;;5115463;28;20457;-77
2024/02/17 03:36:49;;;;;;;6.03;5.53;;;13.90;99.90;;;;;;5115913;28;20473;-77
2024/02/17 03:39:19;;;;;;;6.00;4.90;;;13.90;99.90;;;;;;5115484;28;21022;-77
2024/02/17 03:41:52;;;;;;;6.20;5.60;;;13.90;99.90;;;;;;5116171;28;20456;-77
2024/02/17 03:44:19;;;;;;;6.40;5.73;;;14.00;99.90;;;;;;5115040;28;20525;-77
2024/02/17 03:46:46;;;;;;;6.47;5.30;;;13.90;99.90;;;;;;5116011;28;21015;-80
2024/02/17 03:49:13;;;;;;;7.87;6.70;;;13.90;99.90;;;;;;5115637;28;20473;-77
2024/02/17 03:51:41;;;;;;;6.80;6.10;;;13.90;99.90;;;;;;5115655;28;20460;-77
2024/02/17 03:54:10;;;;;;;7.20;6.40;;;13.90;99.90;;;;;;5115185;28;20852;-77
2024/02/17 03:56:37;;;;;;;5.23;4.83;;;13.90;99.90;;;;;;5115853;28;20475;-77
2024/02/17 03:59:04;;;;;;;7.43;6.63;;;13.90;99.90;;;;;;5115464;28;20802;-77
2024/02/17 04:01:35;;;;;;;6.97;6.27;;;13.90;99.90;;;;;;5115628;28;20470;-77
2024/02/17 04:04:03;;;;;;;5.63;5.13;;;14.00;99.90;;;;;;5115076;28;20477;-80
2024/02/17 04:06:30;;;;;;;6.63;5.97;;;14.00;99.90;;;;;;5115529;28;20491;-80
2024/02/17 04:09:00;;;;;;;6.03;5.43;;;14.00;99.90;;;;;;5115515;28;20810;-80
2024/02/17 04:11:29;;;;;;;7.60;6.80;;;14.00;99.90;;;;;;5115305;28;20468;-80
2024/02/17 04:13:58;;;;;;;7.03;6.33;;;14.00;99.90;;;;;;5115411;28;20479;-77
2024/02/17 04:16:25;;;;;;;6.03;5.50;;;14.00;99.90;;;;;;5114750;28;20453;-77
2024/02/17 04:18:52;;;;;;;8.17;7.40;;;13.90;99.90;;;;;;5115056;28;20552;-77
2024/02/17 04:21:19;;;;;;;7.13;6.40;;;13.90;99.90;;;;;;5114790;28;21121;-77
2024/02/17 04:23:44;;;;;;;6.17;5.33;;;13.90;99.90;;;;;;5115217;28;20801;-76
2024/02/17 04:26:12;;;;;;;9.40;7.97;;;13.90;99.90;;;;;;5114752;28;20471;-80
2024/02/17 04:28:40;;;;;;;7.90;6.90;;;13.90;99.90;;;;;;5113573;28;20468;-80
2024/02/17 04:31:07;;;;;;;7.70;5.53;;;13.90;99.90;;;;;;5114154;28;20788;-80
2024/02/17 04:33:37;;;;;;;9.23;7.83;;;13.90;99.90;;;;;;5115250;28;20460;-80
2024/02/17 04:36:05;;;;;;;8.40;6.43;;;13.90;99.90;;;;;;5115107;28;20479;-80
2024/02/17 04:38:33;;;;;;;6.63;6.03;;;13.90;99.90;;;;;;5114786;28;20533;-80
2024/02/17 04:41:00;;;;;;;9.23;7.50;;;13.90;99.90;;;;;;5114756;28;20464;-77
2024/02/17 04:43:27;;;;;;;10.00;6.40;;;14.00;99.90;;;;;;5114122;28;20482;-80
2024/02/17 04:45:55;;;;;;;8.00;7.30;;;14.00;99.90;;;;;;5114988;28;20483;-80
2024/02/17 04:48:22;;;;;;;6.97;6.03;;;14.00;99.90;;;;;;5114308;28;20488;-80
2024/02/17 04:50:52;;;;;;;6.43;5.90;;;13.90;99.90;;;;;;5114424;28;20950;-80
2024/02/17 04:53:22;;;;;;;6.87;6.20;;;13.90;99.90;;;;;;5113860;28;20471;-80
2024/02/17 04:55:49;;;;;;;5.83;5.20;;;13.90;99.90;;;;;;5114633;28;20469;-77
2024/02/17 04:58:17;;;;;;;6.33;5.80;;;13.90;99.90;;;;;;5114049;28;20492;-77
2024/02/17 05:00:46;;;;;;;6.13;5.53;;;13.90;99.90;;;;;;5114493;28;20473;-80
2024/02/17 05:03:15;;;;;;;6.23;5.63;;;13.80;99.90;;;;;;5113716;28;20476;-77
2024/02/17 05:05:43;;;;;;;8.60;6.40;;;13.80;99.90;;;;;;5114452;28;20888;-77
2024/02/17 05:08:10;;;;;;;6.70;6.10;;;13.80;99.90;;;;;;5113773;28;20499;-78
2024/02/17 05:10:39;;;;;;;7.00;6.40;;;13.80;99.90;;;;;;5114134;28;20503;-77
2024/02/17 05:13:06;;;;;;;7.10;6.40;;;13.80;99.90;;;;;;5113912;28;20472;-77
2024/02/17 05:15:34;;;;;;;8.00;6.50;;;13.80;99.90;;;;;;5113766;28;20537;-77
2024/02/17 05:18:01;;;;;;;6.13;5.53;;;13.80;99.90;;;;;;5114510;28;20850;-77
2024/02/17 05:20:29;;;;;;;8.47;6.50;;;13.80;99.90;;;;;;5113546;28;21021;-77
2024/02/17 05:22:57;;;;;;;12.23;6.90;;;13.80;99.90;;;;;;5113684;28;20469;-76
2024/02/17 05:25:25;;;;;;;7.23;6.53;;;13.80;99.90;;;;;;5113634;28;20464;-80
2024/02/17 05:27:56;;;;;;;6.57;6.07;;;13.70;99.90;;;;;;5114211;28;20465;-80
2024/02/17 05:30:23;;;;;;;7.10;6.03;;;13.70;99.90;;;;;;5113399;28;20476;-77
2024/02/17 05:32:51;;;;;;;6.53;5.93;;;13.70;99.90;;;;;;5113911;28;20496;-77
2024/02/17 05:35:18;;;;;;;7.60;6.80;;;13.70;99.90;;;;;;5113163;28;20989;-77
2024/02/17 05:37:46;;;;;;;7.00;6.30;;;13.60;99.90;;;;;;5114286;28;20475;-80
2024/02/17 05:40:14;;;;;;;9.50;7.60;;;13.60;99.90;;;;;;5113429;28;20537;-77
2024/02/17 05:42:43;;;;;;;7.20;6.40;;;13.60;99.90;;;;;;5113617;28;20532;-79
2024/02/17 05:45:11;;;;;;;12.85;8.35;;;13.60;99.90;;;;;;5113864;28;20499;-80
2024/02/17 05:47:38;;;;;;;6.40;5.80;;;13.60;99.90;;;;;;5113867;28;20215;-79
2024/02/17 05:50:06;;;;;;;6.68;5.97;;;13.60;99.90;;;;;;5113803;28;20302;-77
2024/02/17 05:52:33;;;;;;;12.27;9.50;;;13.50;99.90;;;;;;5112864;28;20262;-77
2024/02/17 05:55:02;;;;;;;8.77;6.93;;;13.50;99.90;;;;;;5113923;28;20495;-76
2024/02/17 05:57:29;;;;;;;7.60;5.60;;;13.50;99.90;;;;;;5112979;28;20472;-79
2024/02/17 05:59:57;;;;;;;14.40;9.80;;;13.40;99.90;;;;;;5113652;28;20471;-79
2024/02/17 06:02:24;;;;;;;10.20;6.67;;;13.40;99.90;;;;;;5113255;28;20465;-76
2024/02/17 06:04:51;;;;;;;6.13;5.53;;;13.40;99.90;;;;;;5113240;28;20496;-80
2024/02/17 06:07:19;;;;;;;8.37;6.07;;;13.40;99.90;;;;;;5112953;28;20503;-76
2024/02/17 06:09:46;;;;;;;18.40;12.37;;;13.30;99.90;;;;;;5113733;28;20472;-76
2024/02/17 06:12:15;;;;;;;7.07;6.37;;;13.30;99.90;;;;;;5114686;28;20492;-79
2024/02/17 06:14:43;;;;;;;7.20;6.40;;;13.30;99.90;;;;;;5116715;28;20476;-77
2024/02/17 06:17:10;;;;;;;9.70;7.30;;;13.20;99.90;;;;;;5114449;28;20456;-79
2024/02/17 06:22:21;;;;;;;13.90;9.57;;;13.10;99.90;;;;;;5113116;28;20524;-77
2024/02/17 06:24:48;;;;;;;8.27;6.27;;;13.10;99.90;;;;;;5113515;28;20302;-77
2024/02/17 06:27:19;;;;;;;8.87;7.97;;;13.10;99.90;;;;;;5113455;28;20490;-79
2024/02/17 06:29:46;;;;;;;14.30;11.15;;;13.10;99.90;;;;;;5113173;28;20477;-78
2024/02/17 06:32:14;;;;;;;12.57;9.77;;;13.10;99.90;;;;;;5113236;28;20246;-80
2024/02/17 06:34:41;;;;;;;6.30;5.70;;;13.00;99.90;;;;;;5115371;28;20310;-77
2024/02/17 06:37:08;;;;;;;19.70;11.25;;;13.00;99.90;;;;;;5117036;28;20809;-80
2024/02/17 06:39:35;;;;;;;7.68;5.80;;;13.00;99.90;;;;;;5116871;28;20214;-78
2024/02/17 06:42:02;;;;;;;9.35;6.65;;;12.90;99.90;;;;;;5117146;28;20570;-75
2024/02/17 06:44:31;;;;;;;10.68;7.20;;;13.00;99.90;;;;;;5116318;28;20256;-75
2024/02/17 06:46:58;;;;;;;6.90;6.17;;;12.90;99.90;;;;;;5115574;28;20215;-78
2024/02/17 06:49:25;;;;;;;20.60;12.97;;;12.90;99.90;;;;;;5116362;28;20537;-76
2024/02/17 06:51:52;;;;;;;14.30;11.45;;;12.90;99.90;;;;;;5116711;28;20460;-79
2024/02/17 06:54:19;;;;;;;9.65;7.15;;;12.90;99.90;;;;;;5116857;28;20244;-76
2024/02/17 06:56:46;;;;;;;6.95;5.97;;;12.90;99.90;;;;;;5115761;28;20218;-76
2024/02/17 06:59:13;;;;;;;27.92;20.40;;;12.90;99.90;;;;;;5116749;28;20228;-76
2024/02/17 07:01:42;;;;;;;10.13;8.60;;;12.90;99.90;;;;;;5116634;28;20625;-76
2024/02/17 07:04:09;;;;;;;6.68;5.72;;;12.90;99.90;;;;;;5116773;28;20572;-78
2024/02/17 07:06:36;;;;;;;10.38;9.25;;;12.90;99.90;;;;;;5115940;28;20237;-79
2024/02/17 07:09:03;;;;;;;9.50;6.80;;;12.90;99.90;;;;;;5116688;28;20218;-76
2024/02/17 07:11:30;;;;;;;6.82;6.13;;;12.80;99.90;;;;;;5115934;28;20468;-76
2024/02/17 07:13:57;;;;;;;9.13;7.50;;;12.90;99.90;;;;;;5116614;28;20227;-76
2024/02/17 07:16:25;;;;;;;8.57;6.30;;;12.80;99.90;;;;;;5116405;28;20468;-76
2024/02/17 07:18:57;;;;;;;8.07;6.55;;;12.90;99.90;;;;;;5116173;28;20457;-76
2024/02/17 07:21:25;;;;;;;7.50;6.55;;;12.90;99.90;;;;;;5115771;28;20223;-78
2024/02/17 07:23:51;;;;;;;7.88;7.07;;;12.90;99.90;;;;;;5115601;28;20241;-79
2024/02/17 07:26:18;;;;;;;7.53;5.70;;;13.00;99.90;;;;;;5116074;28;20254;-76
2024/02/17 07:28:47;;;;;;;11.73;9.03;;;12.90;99.90;;;;;;5116044;28;20560;-76
2024/02/17 07:31:16;;;;;;;8.13;5.83;;;13.00;99.90;;;;;;5116312;28;20799;-78
2024/02/17 07:33:46;;;;;;;6.28;5.55;;;13.00;99.90;;;;;;5115587;28;20484;-79
2024/02/17 07:36:14;;;;;;;7.50;6.17;;;13.00;99.90;;;;;;5115645;28;20612;-76
2024/02/17 07:38:41;;;;;;;5.60;5.03;;;13.00;99.90;;;;;;5115811;28;20475;-76
2024/02/17 07:41:11;;;;;;;5.50;5.00;;;13.00;99.90;;;;;;5115556;28;20476;-75
2024/02/17 07:43:39;;;;;;;8.02;5.45;;;13.00;99.90;;;;;;5114647;28;20980;-76
2024/02/17 07:46:07;;;;;;;6.27;5.30;;;13.00;99.90;;;;;;5115422;28;20302;-78
2024/02/17 07:48:33;;;;;;;7.50;5.27;;;13.00;99.90;;;;;;5115234;28;20468;-78
2024/02/17 07:51:00;;;;;;;6.13;4.13;;;13.00;99.90;;;;;;5115672;28;20465;-78
2024/02/17 07:53:29;;;;;;;6.00;5.28;;;13.00;99.90;;;;;;5115614;28;20778;-77
2024/02/17 07:55:56;;;;;;;9.65;5.35;;;13.00;99.90;;;;;;5114588;28;20223;-78
2024/02/17 07:58:23;;;;;;;6.75;5.68;;;13.00;99.90;;;;;;5115513;28;20623;-76
2024/02/17 08:00:50;;;;;;;22.45;13.50;;;13.00;99.90;;;;;;5115349;28;20231;-77
2024/02/17 08:03:18;;;;;;;6.63;5.53;;;12.90;99.90;;;;;;5115585;28;20698;-76
2024/02/17 08:05:47;;;;;;;5.37;4.87;;;12.90;99.90;;;;;;5114365;28;20218;-79
2024/02/17 08:08:15;;;;;;;19.43;11.10;;;12.90;99.90;;;;;;5115807;28;20475;-79
2024/02/17 08:10:43;;;;;;;8.10;5.63;;;12.90;99.90;;;;;;5114964;28;20798;-79
2024/02/17 08:13:10;;;;;;;7.82;5.55;;;12.90;99.90;;;;;;5114973;28;20280;-78
2024/02/17 08:15:38;;;;;;;6.43;5.77;;;12.90;99.90;;;;;;5105985;28;20226;-79
2024/02/17 08:18:06;;;;;;;9.80;7.78;;;12.90;99.90;;;;;;5114773;28;20465;-79
2024/02/17 08:20:33;;;;;;;9.07;7.20;;;12.90;99.90;;;;;;5115354;28;20283;-79
2024/02/17 08:23:01;;;;;;;6.55;4.93;;;12.90;99.90;;;;;;5114423;28;20222;-76
2024/02/17 08:25:29;;;;;;;11.98;9.20;;;12.90;99.90;;;;;;5106872;28;20227;-76
2024/02/17 08:28:00;;;;;;;9.03;5.13;;;12.90;99.90;;;;;;5114996;28;20675;-77
2024/02/17 08:30:27;;;;;;;6.93;5.15;;;13.00;99.90;;;;;;5106702;28;20471;-76
2024/02/17 08:33:07;;;;;;;5.13;3.53;;;13.00;99.90;;;;;;5114201;28;20240;-79
2024/02/17 08:35:35;;;;;;;6.63;4.40;;;13.00;99.90;;;;;;5114650;28;20229;-79
2024/02/17 08:38:02;;;;;;;5.95;5.28;;;13.00;99.90;;;;;;5114623;28;20509;-79
2024/02/17 08:40:29;;;;;;;8.50;3.72;;;13.00;99.90;;;;;;5115527;28;20305;-79
2024/02/17 08:42:58;;;;;;;11.77;8.93;;;13.00;99.90;;;;;;5115335;28;20260;-80
2024/02/17 08:45:25;;;;;;;9.85;8.25;;;13.10;99.90;;;;;;5118165;28;20219;-76
2024/02/17 08:47:52;;;;;;;13.63;7.50;;;13.00;99.90;;;;;;5114863;28;20318;-76
2024/02/17 08:50:20;;;;;;;13.53;10.27;;;13.00;99.90;;;;;;5114665;28;20460;-76
2024/02/17 08:52:47;;;;;;;6.33;5.73;;;13.00;99.90;;;;;;5113794;28;20471;-79
2024/02/17 08:55:16;;;;;;;11.50;7.40;;;13.00;99.90;;;;;;5114483;28;20467;-79
2024/02/17 08:57:43;;;;;;;2.85;2.40;;;13.00;99.90;;;;;;5113015;28;20538;-78
2024/02/17 09:00:13;;;;;;;3.75;2.88;;;13.00;99.90;;;;;;5114402;28;20227;-79
2024/02/17 09:02:40;;;;;;;1.80;1.70;;;13.00;99.90;;;;;;5113648;28;20249;-78
2024/02/17 09:05:08;;;;;;;7.93;4.90;;;13.00;99.90;;;;;;5118516;27;20218;-79
2024/02/17 09:07:35;;;;;;;5.97;3.80;;;12.90;99.90;;;;;;5138658;27;20221;-79
2024/02/17 09:10:03;;;;;;;18.50;8.73;;;13.00;99.90;;;;;;5140963;27;20218;-79
2024/02/17 09:12:30;;;;;;;3.58;3.20;;;13.00;99.90;;;;;;5134708;27;20222;-79
2024/02/17 09:14:57;;;;;;;4.35;2.80;;;12.90;99.90;;;;;;5150718;27;20255;-79
2024/02/17 09:17:24;;;;;;;3.30;2.92;;;12.90;99.90;;;;;;5134972;27;20226;-76
2024/02/17 09:19:51;;;;;;;6.63;4.73;;;12.90;99.90;;;;;;5134343;27;20594;-77
2024/02/17 09:22:21;;;;;;;5.88;4.68;;;12.90;99.90;;;;;;5133941;27;20464;-76
2024/02/17 09:24:48;;;;;;;6.25;4.35;;;13.00;99.90;;;;;;5134106;27;20274;-77
2024/02/17 09:27:18;;;;;;;8.05;5.00;;;13.00;99.90;;;;;;5134615;27;20250;-77
2024/02/17 09:29:46;;;;;;;2.65;2.05;;;12.90;99.90;;;;;;5133699;27;20305;-77
2024/02/17 09:32:14;;;;;;;4.72;4.07;;;12.90;99.90;;;;;;5133057;27;20263;-76
2024/02/17 09:34:42;;;;;;;8.53;7.20;;;12.90;99.90;;;;;;5134240;27;20274;-76
2024/02/17 09:37:10;;;;;;;3.33;3.00;;;12.90;99.90;;;;;;5134311;27;20934;-77
2024/02/17 09:39:42;;;;;;;2.83;2.20;;;13.00;99.90;;;;;;5139468;27;20537;-76
2024/02/17 09:42:09;;;;;;;2.20;1.90;;;13.00;99.90;;;;;;5153849;27;20278;-76
2024/02/17 09:44:37;;;;;;;2.47;2.28;;;13.00;99.90;;;;;;5155182;27;20473;-77
2024/02/17 09:47:05;;;;;;;1.83;1.70;;;13.00;99.90;;;;;;5154061;27;20331;-77
2024/02/17 09:49:38;;;;;;;2.20;2.00;;;13.00;99.90;;;;;;5155125;27;20465;-76
2024/02/17 09:52:08;;;;;;;3.33;3.03;;;12.90;99.90;;;;;;5154244;27;20570;-76
2024/02/17 09:54:36;;;;;;;3.23;2.37;;;13.00;99.90;;;;;;5155108;27;20222;-76
2024/02/17 09:57:07;;;;;;;9.40;7.78;;;12.90;99.90;;;;;;5154464;27;20466;-76
2024/02/17 09:59:34;;;;;;;8.73;4.60;;;13.00;99.90;;;;;;5154955;27;20232;-77
2024/02/17 10:02:02;;;;;;;2.20;1.73;;;13.00;99.90;;;;;;5154897;27;20471;-77
2024/02/17 10:04:29;;;;;;;6.40;4.83;;;13.10;99.90;;;;;;5154446;27;20477;-76
2024/02/17 10:07:00;;;;;;;4.50;2.50;;;13.10;99.90;;;;;;5121355;27;20801;-79
2024/02/17 10:09:29;;;;;;;13.33;8.10;;;13.10;99.90;;;;;;5109907;28;21018;-80
2024/02/17 10:11:57;;;;;;;2.33;1.85;;;13.10;99.90;;;;;;5117390;28;20472;-79
2024/02/17 10:14:26;;;;;;;1.80;1.50;;;13.10;99.90;;;;;;5142917;27;20229;-79
2024/02/17 10:17:02;;;;;;;9.80;5.57;;;13.10;99.90;;;;;;5149501;27;20478;-76
2024/02/17 10:19:30;;;;;;;4.90;3.47;;;13.00;99.90;;;;;;5160739;27;20259;-76
2024/02/17 10:21:57;;;;;;;5.22;4.75;;;13.10;99.90;;;;;;5163680;27;20550;-76
2024/02/17 10:24:24;;;;;;;3.23;2.17;;;13.00;99.90;;;;;;5162241;27;20241;-77
2024/02/17 10:26:56;;;;;;;2.70;1.97;;;13.10;99.90;;;;;;5165930;27;20513;-77
2024/02/17 10:29:24;;;;;;;3.90;2.50;;;13.10;99.90;;;;;;5160435;27;20454;-76
2024/02/17 10:31:54;;;;;;;2.27;2.07;;;13.10;99.90;;;;;;5158898;27;20470;-77
2024/02/17 10:34:21;;;;;;;2.42;2.22;;;13.10;99.90;;;;;;5160215;27;20454;-79
2024/02/17 10:36:50;;;;;;;2.97;1.77;;;13.20;99.90;;;;;;5161514;27;20241;-78
2024/02/17 10:39:20;;;;;;;3.03;1.83;;;13.10;99.90;;;;;;5158762;27;20265;-79
2024/02/17 10:41:48;;;;;;;2.90;2.13;;;13.20;99.90;;;;;;5139802;27;20487;-79
2024/02/17 10:44:17;;;;;;;12.90;8.73;;;13.30;99.90;;;;;;5139060;27;20455;-76
2024/02/17 10:46:47;;;;;;;1.80;1.37;;;13.30;99.90;;;;;;5139119;27;20489;-79
2024/02/17 10:49:23;;;;;;;4.77;1.87;;;13.30;99.90;;;;;;5139124;27;20451;-79
2024/02/17 10:51:57;;;;;;;5.70;4.37;;;13.20;99.90;;;;;;5139044;27;20463;-77
2024/02/17 10:54:33;;;;;;;2.27;1.80;;;13.10;99.90;;;;;;5137089;27;20459;-79
2024/02/17 10:57:16;;;;;;;2.20;1.30;;;13.20;99.90;;;;;;5139309;27;20505;-79
2024/02/17 10:59:51;;;;;;;4.10;2.33;;;13.10;99.90;;;;;;5142870;27;20485;-78
2024/02/17 11:02:23;;;;;;;4.90;1.97;;;13.20;99.90;;;;;;5138447;27;20466;-78
2024/02/17 11:04:50;;;;;;;2.87;2.20;;;13.20;99.90;;;;;;5140317;27;20968;-79
2024/02/17 11:07:19;;;;;;;7.00;5.17;;;13.20;99.90;;;;;;5117669;27;20547;-79
2024/02/17 11:09:46;;;;;;;14.67;9.50;;;13.20;99.90;;;;;;5116584;28;20468;-76
2024/02/17 11:12:32;;;;;;;4.50;2.87;;;13.30;99.90;;;;;;5115878;28;20547;-77
2024/02/17 11:15:08;;;;;;;3.20;2.80;;;13.40;99.90;;;;;;5116549;28;20468;-76
2024/02/17 11:17:40;;;;;;;3.23;1.80;;;13.40;99.90;;;;;;5115052;28;20475;-76
2024/02/17 11:20:11;;;;;;;1.60;1.30;;;13.30;99.90;;;;;;5115138;28;20475;-76
2024/02/17 11:22:39;;;;;;;3.43;2.20;;;13.30;99.90;;;;;;5116159;28;20525;-76
2024/02/17 11:25:07;;;;;;;7.53;4.30;;;13.30;99.90;;;;;;5116566;28;20524;-77
2024/02/17 11:27:35;;;;;;;4.00;1.40;;;13.20;99.90;;;;;;5115737;28;24991;-79
2024/02/17 11:30:07;;;;;;;3.77;2.67;;;13.20;99.90;;;;;;5116276;28;20502;-79
2024/02/17 11:32:34;;;;;;;2.43;2.20;;;13.20;99.90;;;;;;5115410;28;20567;-79
2024/02/17 11:35:02;;;;;;;3.27;2.30;;;13.20;99.90;;;;;;5116139;28;20472;-79
2024/02/17 11:37:31;;;;;;;9.90;8.60;;;13.20;99.90;;;;;;5115727;28;20471;-79
2024/02/17 11:40:02;;;;;;;9.30;3.92;;;13.20;99.90;;;;;;5117535;28;20551;-76
2024/02/17 11:42:30;;;;;;;8.97;5.63;;;13.20;99.90;;;;;;5104734;28;20665;-77
2024/02/17 11:44:59;;;;;;;9.75;6.15;;;13.20;99.90;;;;;;5115759;28;20461;-76
2024/02/17 11:47:29;;;;;;;4.80;2.87;;;13.20;99.90;;;;;;5115402;28;20301;-77
2024/02/17 11:50:08;;;;;;;2.13;1.40;;;13.10;99.90;;;;;;5114885;28;20551;-76
2024/02/17 11:52:35;;;;;;;6.77;2.33;;;13.10;99.90;;;;;;5115123;28;20476;-76
2024/02/17 11:55:03;;;;;;;1.60;1.50;;;13.00;99.90;;;;;;5113647;28;20472;-76
2024/02/17 11:57:31;;;;;;;3.73;2.13;;;13.00;99.90;;;;;;5114855;28;20808;-79
2024/02/17 11:59:59;;;;;;;8.80;3.00;;;12.90;99.90;;;;;;5115792;28;20460;-79
2024/02/17 12:02:27;;;;;;;2.80;1.90;;;12.90;99.90;;;;;;5115252;28;20627;-76
2024/02/17 12:04:55;;;;;;;3.70;3.05;;;12.80;99.90;;;;;;5115447;28;20543;-77
2024/02/17 12:07:22;;;;;;;3.40;1.90;;;12.90;99.90;;;;;;5114986;28;20227;-77
2024/02/17 12:09:49;;;;;;;6.60;1.63;;;12.80;99.90;;;;;;5115615;28;20464;-77
2024/02/17 12:12:16;;;;;;;4.53;1.98;;;12.80;99.90;;;;;;5115449;28;20218;-77
2024/02/17 12:14:43;;;;;;;8.30;4.60;;;12.80;99.90;;;;;;5146962;27;20221;-78
2024/02/17 12:17:10;;;;;;;5.17;1.80;;;12.70;99.90;;;;;;5156445;27;20524;-79
2024/02/17 12:19:39;;;;;;;12.82;6.32;;;12.70;99.90;;;;;;5156440;27;20462;-79
2024/02/17 12:22:07;;;;;;;9.23;7.00;;;12.60;99.90;;;;;;5156752;27;20210;-76
2024/02/17 12:24:34;;;;;;;7.78;5.55;;;12.60;99.90;;;;;;5155730;27;20221;-77
2024/02/17 12:27:11;;;;;;;4.80;2.55;;;12.60;99.90;;;;;;5156431;27;20593;-76
2024/02/17 12:29:38;;;;;;;5.43;2.60;;;12.60;99.90;;;;;;5156006;27;20233;-79
2024/02/17 12:32:09;;;;;;;5.47;2.73;;;12.60;99.90;;;;;;5153498;27;20266;-76
2024/02/17 12:34:38;;;;;;;7.22;4.10;;;12.50;99.90;;;;;;5155396;27;20545;-76
2024/02/17 12:37:07;;;;;;;3.80;3.30;;;12.60;99.90;;;;;;5156449;27;20221;-76
2024/02/17 12:39:34;;;;;;;5.30;2.70;;;12.60;99.90;;;;;;5156006;27;20314;-79
2024/02/17 12:42:03;;;;;;;5.03;2.80;;;12.60;99.90;;;;;;5156574;27;20213;-76
2024/02/17 12:44:36;;;;;;;4.65;2.30;;;12.60;99.90;;;;;;5136040;27;20300;-79
2024/02/17 12:47:15;;;;;;;4.43;2.28;;;12.60;99.90;;;;;;5154999;27;20229;-79
2024/02/17 12:49:43;;;;;;;6.15;3.80;;;12.60;99.90;;;;;;5155586;27;20725;-77
2024/02/17 12:52:12;;;;;;;6.53;3.00;;;12.60;99.90;;;;;;5155572;27;20226;-77
2024/02/17 12:54:39;;;;;;;7.07;3.58;;;12.60;99.90;;;;;;5155388;27;20470;-77